createdAt,value
2022-09-16T00:00:48.409Z,67.89
2022-09-16T00:03:16.232Z,68.09
2022-09-16T00:05:52.660Z,68.01
2022-09-16T00:08:19.767Z,68.14
2022-09-16T00:10:46.275Z,67.59
2022-09-16T00:13:13.056Z,68.05
2022-09-16T00:15:46.460Z,67.80
2022-09-16T00:18:13.055Z,68.05
2022-09-16T00:20:47.082Z,68.01
2022-09-16T00:23:13.633Z,67.94
2022-09-16T00:25:40.280Z,67.75
2022-09-16T00:28:06.791Z,67.98
2022-09-16T00:30:33.283Z,67.75
2022-09-16T00:32:59.769Z,68.19
2022-09-16T00:35:38.184Z,68.15
2022-09-16T00:38:04.711Z,68.01
2022-09-16T00:40:31.281Z,68.10
2022-09-16T00:43:00.103Z,67.68
2022-09-16T00:45:31.675Z,67.68
2022-09-16T00:47:59.738Z,68.06
2022-09-16T00:50:48.271Z,67.66
2022-09-16T00:53:20.723Z,67.84
2022-09-16T00:55:47.237Z,68.27
2022-09-16T00:58:35.765Z,67.58
2022-09-16T01:01:02.388Z,67.74
2022-09-16T01:03:29.044Z,67.83
2022-09-16T01:05:55.541Z,67.41
2022-09-16T01:08:22.095Z,67.68
2022-09-16T01:10:48.561Z,67.68
2022-09-16T01:13:15.089Z,67.98
2022-09-16T01:15:44.486Z,67.45
2022-09-16T01:18:23.431Z,67.36
2022-09-16T01:21:17.350Z,67.62
2022-09-16T01:24:04.028Z,67.61
2022-09-16T01:26:52.206Z,67.95
2022-09-16T01:29:38.901Z,67.77
2022-09-16T01:32:20.873Z,67.41
2022-09-16T01:35:02.872Z,67.53
2022-09-16T01:37:42.488Z,67.51
2022-09-16T01:40:20.944Z,67.96
2022-09-16T01:42:52.889Z,67.50
2022-09-16T01:45:22.875Z,67.62
2022-09-16T01:48:08.995Z,67.61
2022-09-16T01:50:43.343Z,67.47
2022-09-16T01:53:32.944Z,67.75
2022-09-16T01:56:03.495Z,67.33
2022-09-16T01:58:54.252Z,67.75
2022-09-16T02:01:44.566Z,67.82
2022-09-16T02:04:17.560Z,67.69
2022-09-16T02:06:44.067Z,67.91
2022-09-16T02:09:15.875Z,67.62
2022-09-16T02:11:42.514Z,67.89
2022-09-16T02:14:16.092Z,68.00
2022-09-16T02:16:50.340Z,67.68
2022-09-16T02:19:26.264Z,67.76
2022-09-16T02:21:53.271Z,67.73
2022-09-16T02:24:20.898Z,67.64
2022-09-16T02:26:55.141Z,67.25
2022-09-16T02:29:23.506Z,67.80
2022-09-16T02:31:54.956Z,67.74
2022-09-16T02:34:26.389Z,67.47
2022-09-16T02:36:55.565Z,67.63
2022-09-16T02:39:26.281Z,67.46
2022-09-16T02:41:55.181Z,67.27
2022-09-16T02:44:21.656Z,67.27
2022-09-16T02:47:07.772Z,67.25
2022-09-16T02:49:49.564Z,67.22
2022-09-16T02:52:23.575Z,67.74
2022-09-16T02:55:22.220Z,67.82
2022-09-16T02:57:49.628Z,67.44
2022-09-16T03:00:16.188Z,67.76
2022-09-16T03:02:42.868Z,67.36
2022-09-16T03:05:12.189Z,67.47
2022-09-16T03:07:38.973Z,67.82
2022-09-16T03:10:05.853Z,67.41
2022-09-16T03:12:38.281Z,67.38
2022-09-16T03:15:32.088Z,67.63
2022-09-16T03:17:58.479Z,67.54
2022-09-16T03:20:28.066Z,67.32
2022-09-16T03:23:09.476Z,67.42
2022-09-16T03:25:39.643Z,67.11
2022-09-16T03:28:27.470Z,67.70
2022-09-16T03:31:11.462Z,67.30
2022-09-16T03:34:11.899Z,67.47
2022-09-16T03:36:41.311Z,67.68
2022-09-16T03:39:07.789Z,67.65
2022-09-16T03:41:34.721Z,67.63
2022-09-16T03:44:03.981Z,67.64
2022-09-16T03:46:31.134Z,67.47
2022-09-16T03:48:57.753Z,67.32
2022-09-16T03:51:24.675Z,67.20
2022-09-16T03:53:54.085Z,67.14
2022-09-16T03:56:22.141Z,67.72
2022-09-16T03:58:48.683Z,67.44
2022-09-16T04:01:15.266Z,67.64
2022-09-16T04:03:42.039Z,67.61
2022-09-16T04:06:09.461Z,67.48
2022-09-16T04:08:36.131Z,67.06
2022-09-16T04:11:05.392Z,67.20
2022-09-16T04:13:35.322Z,67.56
2022-09-16T04:16:02.745Z,67.06
2022-09-16T04:18:30.924Z,67.44
2022-09-16T04:20:58.827Z,67.26
2022-09-16T04:23:26.497Z,67.33
2022-09-16T04:26:00.293Z,67.47
2022-09-16T04:28:26.940Z,67.30
2022-09-16T04:30:53.652Z,67.33
2022-09-16T04:33:20.231Z,67.21
2022-09-16T04:35:46.758Z,67.42
2022-09-16T04:38:13.242Z,67.47
2022-09-16T04:40:40.071Z,67.00
2022-09-16T04:43:06.552Z,67.25
2022-09-16T04:45:33.049Z,67.61
2022-09-16T04:47:59.577Z,67.44
2022-09-16T04:50:26.077Z,67.44
2022-09-16T04:52:52.657Z,67.53
2022-09-16T04:55:19.149Z,67.02
2022-09-16T04:57:45.710Z,67.27
2022-09-16T05:00:12.704Z,67.02
2022-09-16T05:02:39.218Z,67.44
2022-09-16T05:05:06.132Z,67.16
2022-09-16T05:07:32.619Z,67.56
2022-09-16T05:09:59.129Z,67.32
2022-09-16T05:12:25.596Z,67.02
2022-09-16T05:14:52.137Z,67.14
2022-09-16T05:17:39.571Z,67.05
2022-09-16T05:20:05.632Z,67.17
2022-09-16T05:22:32.095Z,67.38
2022-09-16T05:24:58.588Z,67.29
2022-09-16T05:27:27.953Z,67.16
2022-09-16T05:29:54.444Z,67.27
2022-09-16T05:32:20.921Z,67.41
2022-09-16T05:34:47.585Z,67.02
2022-09-16T05:37:14.053Z,66.89
2022-09-16T05:39:40.580Z,67.37
2022-09-16T05:42:07.083Z,67.05
2022-09-16T05:44:33.602Z,67.37
2022-09-16T05:47:00.176Z,67.13
2022-09-16T05:49:26.749Z,67.19
2022-09-16T05:51:53.502Z,66.91
2022-09-16T05:54:20.359Z,66.94
2022-09-16T05:56:47.300Z,67.00
2022-09-16T05:59:14.045Z,66.85
2022-09-16T06:01:40.673Z,67.28
2022-09-16T06:04:08.036Z,67.39
2022-09-16T06:06:41.930Z,66.71
2022-09-16T06:09:10.705Z,67.01
2022-09-16T06:11:38.727Z,67.16
2022-09-16T06:14:06.088Z,67.09
2022-09-16T06:16:36.103Z,67.10
2022-09-16T06:19:04.100Z,66.82
2022-09-16T06:21:30.747Z,66.78
2022-09-16T06:23:57.348Z,67.25
2022-09-16T06:26:25.421Z,66.99
2022-09-16T06:28:52.143Z,67.10
2022-09-16T06:31:19.457Z,67.24
2022-09-16T06:33:46.004Z,67.26
2022-09-16T06:36:14.351Z,67.03
2022-09-16T06:38:41.136Z,67.16
2022-09-16T06:41:08.543Z,67.27
2022-09-16T06:43:35.106Z,67.19
2022-09-16T06:46:03.494Z,67.04
2022-09-16T06:48:33.433Z,67.01
2022-09-16T06:51:04.760Z,67.32
2022-09-16T06:53:31.672Z,67.27
2022-09-16T06:56:02.067Z,66.85
2022-09-16T06:58:31.869Z,66.90
2022-09-16T07:00:58.517Z,67.05
2022-09-16T07:03:25.404Z,67.14
2022-09-16T07:06:00.251Z,66.80
2022-09-16T07:08:26.729Z,66.89
2022-09-16T07:11:05.646Z,66.72
2022-09-16T07:13:32.320Z,66.78
2022-09-16T07:16:12.867Z,67.12
2022-09-16T07:18:40.058Z,67.10
2022-09-16T07:21:28.740Z,66.79
2022-09-16T07:23:55.868Z,67.02
2022-09-16T07:26:26.184Z,66.57
2022-09-16T07:28:53.227Z,67.02
2022-09-16T07:31:25.317Z,66.70
2022-09-16T07:33:52.674Z,66.67
2022-09-16T07:36:26.300Z,66.79
2022-09-16T07:38:52.891Z,66.77
2022-09-16T07:41:24.066Z,66.95
2022-09-16T07:43:50.718Z,66.62
2022-09-16T07:46:18.005Z,66.73
2022-09-16T07:48:45.671Z,66.74
2022-09-16T07:51:14.260Z,67.07
2022-09-16T07:53:40.849Z,66.70
2022-09-16T07:56:11.215Z,66.59
2022-09-16T07:58:38.523Z,66.98
2022-09-16T08:01:05.944Z,67.03
2022-09-16T08:03:33.120Z,66.89
2022-09-16T08:06:04.304Z,66.96
2022-09-16T08:08:31.486Z,66.93
2022-09-16T08:10:58.468Z,66.66
2022-09-16T08:13:25.191Z,66.70
2022-09-16T08:15:53.237Z,67.09
2022-09-16T08:18:20.857Z,67.06
2022-09-16T08:20:47.440Z,66.51
2022-09-16T08:23:14.636Z,66.60
2022-09-16T08:25:42.575Z,66.53
2022-09-16T08:28:13.743Z,66.97
2022-09-16T08:30:40.616Z,66.72
2022-09-16T08:33:07.141Z,66.59
2022-09-16T08:35:33.685Z,67.34
2022-09-16T08:38:00.453Z,66.84
2022-09-16T08:40:26.968Z,66.82
2022-09-16T08:43:10.148Z,66.73
2022-09-16T08:45:44.403Z,67.03
2022-09-16T08:48:28.720Z,66.80
2022-09-16T08:50:55.507Z,67.02
2022-09-16T08:53:38.347Z,66.68
2022-09-16T08:56:07.616Z,66.68
2022-09-16T08:58:42.793Z,66.86
2022-09-16T09:01:20.468Z,66.68
2022-09-16T09:03:47.316Z,66.78
2022-09-16T09:06:30.691Z,66.98
2022-09-16T09:09:24.077Z,67.05
2022-09-16T09:12:21.005Z,66.70
2022-09-16T09:14:53.523Z,66.96
2022-09-16T09:17:55.080Z,66.52
2022-09-16T09:20:36.973Z,66.70
2022-09-16T09:23:21.667Z,66.45
2022-09-16T09:26:15.856Z,66.91
2022-09-16T09:28:51.390Z,66.58
2022-09-16T09:31:20.977Z,66.71
2022-09-16T09:34:12.840Z,66.93
2022-09-16T09:36:48.892Z,66.96
2022-09-16T09:39:41.197Z,66.65
2022-09-16T09:42:29.359Z,66.56
2022-09-16T09:45:29.687Z,66.82
2022-09-16T09:48:17.637Z,66.88
2022-09-16T09:50:53.273Z,66.93
2022-09-16T09:53:35.806Z,66.68
2022-09-16T09:56:11.368Z,67.04
2022-09-16T09:59:01.200Z,66.94
2022-09-16T10:01:27.780Z,66.57
2022-09-16T10:03:57.827Z,66.40
2022-09-16T10:06:33.294Z,66.90
2022-09-16T10:08:59.916Z,66.84
2022-09-16T10:11:31.907Z,66.80
2022-09-16T10:14:00.057Z,66.52
2022-09-16T10:16:34.579Z,66.71
2022-09-16T10:19:24.301Z,66.54
2022-09-16T10:21:54.434Z,66.73
2022-09-16T10:24:26.852Z,66.52
2022-09-16T10:26:53.319Z,66.90
2022-09-16T10:29:19.830Z,66.29
2022-09-16T10:31:46.441Z,66.72
2022-09-16T10:34:29.167Z,66.46
2022-09-16T10:37:19.805Z,66.54
2022-09-16T10:39:54.255Z,66.66
2022-09-16T10:42:22.225Z,66.81
2022-09-16T10:44:51.252Z,66.29
2022-09-16T10:47:23.322Z,66.49
2022-09-16T10:49:52.036Z,66.62
2022-09-16T10:52:21.752Z,66.49
2022-09-16T10:54:48.458Z,66.43
2022-09-16T10:57:44.266Z,66.22
2022-09-16T11:00:13.672Z,66.54
2022-09-16T11:02:59.123Z,66.44
2022-09-16T11:05:44.785Z,66.46
2022-09-16T11:08:21.695Z,66.40
2022-09-16T11:10:56.931Z,66.79
2022-09-16T11:13:26.402Z,66.62
2022-09-16T11:16:25.946Z,66.40
2022-09-16T11:19:11.644Z,66.81
2022-09-16T11:21:55.999Z,66.58
2022-09-16T11:24:43.475Z,66.37
2022-09-16T11:27:12.881Z,66.32
2022-09-16T11:29:42.288Z,66.48
2022-09-16T11:32:11.652Z,66.45
2022-09-16T11:35:17.614Z,66.89
2022-09-16T11:37:59.184Z,66.36
2022-09-16T11:40:25.746Z,66.81
2022-09-16T11:43:06.160Z,66.31
2022-09-16T11:45:48.060Z,66.40
2022-09-16T11:48:19.753Z,66.67
2022-09-16T11:51:07.588Z,66.70
2022-09-16T11:54:06.407Z,66.77
2022-09-16T11:56:47.710Z,66.25
2022-09-16T11:59:20.068Z,66.60
2022-09-16T12:02:17.770Z,66.71
2022-09-16T12:04:53.344Z,66.84
2022-09-16T12:07:42.548Z,66.74
2022-09-16T12:10:18.021Z,66.62
2022-09-16T12:12:47.410Z,66.50
2022-09-16T12:15:20.008Z,66.50
2022-09-16T12:17:57.740Z,66.26
2022-09-16T12:20:33.706Z,66.44
2022-09-16T12:23:12.717Z,66.59
2022-09-16T12:26:10.104Z,66.43
2022-09-16T12:28:40.240Z,66.51
2022-09-16T12:31:27.782Z,66.55
2022-09-16T12:34:02.348Z,66.22
2022-09-16T12:36:31.302Z,66.60
2022-09-16T12:38:59.333Z,66.68
2022-09-16T12:41:46.940Z,66.49
2022-09-16T12:44:33.976Z,66.53
2022-09-16T12:47:22.471Z,66.62
2022-09-16T12:49:54.977Z,66.73
2022-09-16T12:52:33.316Z,66.23
2022-09-16T12:55:24.461Z,66.46
2022-09-16T12:58:14.935Z,66.57
2022-09-16T13:00:44.229Z,66.76
2022-09-16T13:03:15.878Z,66.63
2022-09-16T13:05:48.980Z,66.30
2022-09-16T13:08:29.645Z,66.31
2022-09-16T13:11:47.210Z,66.55
2022-09-16T13:13:54.791Z,66.51
2022-09-16T13:16:35.060Z,66.33
2022-09-16T13:19:16.548Z,66.76
2022-09-16T13:21:47.078Z,66.84
2022-09-16T13:24:37.096Z,66.68
2022-09-16T13:27:23.591Z,66.61
2022-09-16T13:29:50.067Z,66.38
2022-09-16T13:32:26.151Z,66.57
2022-09-16T13:35:23.326Z,66.31
2022-09-16T13:37:54.617Z,66.24
2022-09-16T13:40:28.865Z,66.70
2022-09-16T13:43:13.548Z,66.57
2022-09-16T13:45:44.548Z,66.22
2022-09-16T13:48:16.827Z,66.49
2022-09-16T13:50:51.452Z,66.38
2022-09-16T13:53:29.220Z,66.24
2022-09-16T13:56:21.608Z,66.57
2022-09-16T13:59:33.528Z,66.59
2022-09-16T14:02:23.591Z,66.63
2022-09-16T14:05:29.709Z,66.61
2022-09-16T14:08:07.977Z,66.64
2022-09-16T14:10:43.893Z,66.24
2022-09-16T14:13:17.673Z,66.20
2022-09-16T14:15:56.188Z,66.35
2022-09-16T14:18:24.263Z,66.63
2022-09-16T14:21:15.325Z,66.67
2022-09-16T14:23:41.828Z,66.37
2022-09-16T14:26:16.709Z,66.58
2022-09-16T14:28:43.483Z,66.20
2022-09-16T14:31:13.619Z,66.21
2022-09-16T14:33:48.273Z,66.57
2022-09-16T14:36:24.015Z,66.50
2022-09-16T14:39:04.383Z,66.14
2022-09-16T14:41:47.481Z,66.37
2022-09-16T14:44:20.068Z,66.64
2022-09-16T14:47:08.886Z,66.46
2022-09-16T14:49:39.498Z,66.06
2022-09-16T14:52:21.603Z,66.09
2022-09-16T14:54:48.227Z,66.20
2022-09-16T14:57:17.337Z,66.48
2022-09-16T14:59:43.962Z,66.14
2022-09-16T15:02:40.954Z,66.17
2022-09-16T15:05:19.969Z,66.21
2022-09-16T15:08:09.913Z,66.23
2022-09-16T15:10:49.915Z,66.26
2022-09-16T15:13:18.720Z,66.20
2022-09-16T15:16:09.248Z,66.24
2022-09-16T15:18:42.144Z,66.37
2022-09-16T15:21:11.670Z,66.35
2022-09-16T15:23:39.765Z,66.62
2022-09-16T15:26:18.385Z,66.10
2022-09-16T15:29:05.076Z,66.19
2022-09-16T15:31:40.362Z,66.36
2022-09-16T15:34:18.997Z,66.16
2022-09-16T15:36:49.799Z,66.36
2022-09-16T15:39:38.549Z,66.08
2022-09-16T15:42:16.753Z,66.43
2022-09-16T15:44:44.080Z,66.21
2022-09-16T15:47:21.076Z,66.09
2022-09-16T15:49:48.542Z,66.15
2022-09-16T15:52:15.066Z,66.35
2022-09-16T15:54:58.844Z,66.11
2022-09-16T15:57:39.712Z,66.25
2022-09-16T16:00:13.761Z,65.99
2022-09-16T16:02:51.724Z,66.19
2022-09-16T16:05:21.195Z,66.11
2022-09-16T16:07:49.399Z,66.33
2022-09-16T16:10:44.995Z,66.17
2022-09-16T16:13:11.455Z,66.37
2022-09-16T16:15:38.910Z,66.59
2022-09-16T16:18:06.766Z,66.10
2022-09-16T16:20:34.100Z,66.32
2022-09-16T16:23:01.156Z,66.19
2022-09-16T16:25:27.978Z,66.55
2022-09-16T16:27:54.520Z,66.07
2022-09-16T16:30:21.010Z,66.54
2022-09-16T16:32:47.485Z,66.31
2022-09-16T16:35:14.108Z,66.33
2022-09-16T16:37:46.556Z,66.30
2022-09-16T16:40:14.837Z,66.28
2022-09-16T16:42:43.438Z,66.04
2022-09-16T16:45:12.357Z,65.99
2022-09-16T16:47:39.547Z,66.33
2022-09-16T16:50:06.178Z,66.09
2022-09-16T16:52:32.733Z,65.93
2022-09-16T16:54:59.248Z,66.06
2022-09-16T16:57:25.698Z,66.01
2022-09-16T16:59:52.236Z,66.17
2022-09-16T17:02:18.741Z,66.26
2022-09-16T17:04:45.279Z,66.07
2022-09-16T17:07:28.114Z,66.53
2022-09-16T17:09:57.048Z,65.99
2022-09-16T17:12:23.670Z,66.43
2022-09-16T17:14:50.177Z,66.51
2022-09-16T17:17:16.635Z,66.10
2022-09-16T17:19:43.124Z,66.21
2022-09-16T17:22:09.665Z,66.09
2022-09-16T17:24:36.568Z,66.48
2022-09-16T17:27:03.628Z,66.15
2022-09-16T17:29:30.114Z,66.47
2022-09-16T17:31:57.310Z,66.30
2022-09-16T17:34:26.221Z,66.03
2022-09-16T17:36:52.834Z,66.41
2022-09-16T17:39:20.640Z,66.20
2022-09-16T17:41:48.767Z,66.14
2022-09-16T17:44:15.767Z,66.16
2022-09-16T17:46:42.508Z,66.19
2022-09-16T17:49:14.234Z,66.02
2022-09-16T17:51:41.182Z,66.06
2022-09-16T17:54:08.709Z,66.04
2022-09-16T17:56:35.290Z,66.14
2022-09-16T17:59:01.859Z,65.91
2022-09-16T18:01:28.438Z,66.18
2022-09-16T18:03:55.776Z,66.18
2022-09-16T18:06:27.877Z,66.01
2022-09-16T18:08:54.507Z,65.84
2022-09-16T18:11:21.273Z,66.17
2022-09-16T18:13:48.203Z,66.26
2022-09-16T18:16:18.562Z,66.14
2022-09-16T18:18:45.387Z,66.41
2022-09-16T18:21:15.019Z,65.96
2022-09-16T18:23:41.955Z,66.08
2022-09-16T18:26:12.076Z,66.18
2022-09-16T18:29:05.200Z,66.36
2022-09-16T18:31:26.331Z,66.27
2022-09-16T18:33:53.631Z,65.75
2022-09-16T18:36:22.174Z,66.32
2022-09-16T18:38:55.143Z,65.95
2022-09-16T18:41:23.491Z,66.35
2022-09-16T18:44:00.467Z,65.76
2022-09-16T18:46:31.582Z,65.97
2022-09-16T18:48:58.387Z,66.30
2022-09-16T18:51:38.475Z,65.85
2022-09-16T18:54:06.738Z,66.10
2022-09-16T18:56:34.938Z,65.89
2022-09-16T18:59:23.983Z,66.17
2022-09-16T19:01:53.725Z,65.77
2022-09-16T19:04:24.018Z,65.82
2022-09-16T19:06:52.082Z,66.18
2022-09-16T19:09:20.090Z,65.79
2022-09-16T19:11:46.644Z,65.84
2022-09-16T19:14:13.942Z,65.79
2022-09-16T19:16:41.195Z,65.77
2022-09-16T19:19:08.530Z,66.27
2022-09-16T19:21:35.574Z,65.93
2022-09-16T19:24:03.326Z,66.09
2022-09-16T19:26:32.740Z,66.21
2022-09-16T19:29:01.176Z,66.26
2022-09-16T19:31:28.343Z,66.25
2022-09-16T19:33:57.767Z,65.75
2022-09-16T19:36:26.187Z,66.05
2022-09-16T19:38:52.826Z,65.83
2022-09-16T19:41:21.012Z,65.75
2022-09-16T19:43:47.597Z,66.01
2022-09-16T19:46:15.827Z,65.66
2022-09-16T19:48:44.860Z,65.60
2022-09-16T19:51:12.915Z,66.15
2022-09-16T19:53:40.495Z,65.74
2022-09-16T19:56:11.761Z,65.95
2022-09-16T19:58:38.820Z,66.08
2022-09-16T20:01:12.622Z,65.96
2022-09-16T20:03:40.789Z,66.18
2022-09-16T20:06:12.406Z,66.07
2022-09-16T20:08:40.118Z,65.91
2022-09-16T20:11:11.581Z,66.06
2022-09-16T20:13:39.030Z,66.33
2022-09-16T20:16:07.360Z,65.88
2022-09-16T20:18:34.456Z,66.13
2022-09-16T20:21:08.145Z,65.89
2022-09-16T20:23:34.822Z,65.88
2022-09-16T20:26:02.631Z,66.15
2022-09-16T20:28:38.443Z,65.79
2022-09-16T20:31:05.291Z,66.10
2022-09-16T20:33:33.520Z,65.88
2022-09-16T20:36:11.628Z,65.98
2022-09-16T20:38:38.845Z,65.89
2022-09-16T20:41:10.052Z,65.83
2022-09-16T20:43:36.595Z,65.79
2022-09-16T20:46:10.291Z,65.67
2022-09-16T20:48:36.813Z,66.08
2022-09-16T20:51:24.047Z,65.83
2022-09-16T20:53:58.756Z,65.62
2022-09-16T20:56:25.686Z,65.62
2022-09-16T20:58:52.320Z,65.94
2022-09-16T21:01:23.060Z,66.16
2022-09-16T21:03:56.799Z,65.54
2022-09-16T21:06:23.911Z,65.85
2022-09-16T21:08:54.016Z,65.92
2022-09-16T21:11:21.080Z,66.06
2022-09-16T21:13:55.256Z,66.17
2022-09-16T21:16:22.309Z,65.83
2022-09-16T21:18:52.307Z,65.78
2022-09-16T21:21:19.584Z,65.88
2022-09-16T21:23:47.070Z,65.86
2022-09-16T21:26:18.217Z,65.84
2022-09-16T21:28:45.239Z,65.63
2022-09-16T21:31:15.818Z,65.80
2022-09-16T21:33:43.980Z,65.78
2022-09-16T21:36:11.683Z,65.82
2022-09-16T21:38:38.604Z,65.76
2022-09-16T21:41:06.411Z,66.17
2022-09-16T21:43:34.547Z,65.71
2022-09-16T21:46:02.679Z,65.74
2022-09-16T21:48:31.317Z,65.89
2022-09-16T21:51:05.540Z,66.16
2022-09-16T21:53:32.518Z,65.85
2022-09-16T21:56:05.595Z,65.86
2022-09-16T21:58:32.342Z,65.75
2022-09-16T22:01:08.531Z,65.95
2022-09-16T22:03:35.639Z,65.98
2022-09-16T22:06:02.301Z,65.75
2022-09-16T22:08:28.767Z,65.65
2022-09-16T22:11:06.388Z,65.86
2022-09-16T22:13:33.359Z,65.74
2022-09-16T22:15:59.939Z,65.79
2022-09-16T22:18:27.833Z,65.81
2022-09-16T22:20:54.606Z,65.42
2022-09-16T22:23:21.300Z,66.02
2022-09-16T22:25:47.805Z,65.55
2022-09-16T22:28:14.280Z,65.46
2022-09-16T22:30:40.748Z,65.47
2022-09-16T22:33:07.267Z,65.69
2022-09-16T22:35:35.473Z,65.41
2022-09-16T22:38:03.341Z,65.78
2022-09-16T22:40:31.025Z,65.70
2022-09-16T22:42:58.135Z,65.37
2022-09-16T22:45:24.677Z,65.89
2022-09-16T22:47:51.207Z,65.75
2022-09-16T22:50:17.768Z,65.58
2022-09-16T22:52:44.262Z,65.95
2022-09-16T22:55:10.809Z,65.63
2022-09-16T22:57:37.344Z,65.41
2022-09-16T23:00:04.092Z,65.87
2022-09-16T23:02:30.597Z,65.42
2022-09-16T23:04:57.339Z,65.66
2022-09-16T23:07:23.833Z,65.52
2022-09-16T23:09:50.326Z,65.48
2022-09-16T23:12:17.003Z,65.91
2022-09-16T23:14:43.553Z,65.82
2022-09-16T23:17:10.015Z,65.77
2022-09-16T23:19:36.563Z,65.88
2022-09-16T23:22:03.084Z,65.71
2022-09-16T23:24:29.624Z,65.76
2022-09-16T23:26:56.084Z,65.81
2022-09-16T23:29:22.591Z,65.81
2022-09-16T23:31:49.142Z,65.89
2022-09-16T23:34:17.661Z,65.36
2022-09-16T23:36:44.363Z,65.51
2022-09-16T23:39:13.277Z,65.69
2022-09-16T23:41:39.837Z,65.70
2022-09-16T23:44:06.308Z,65.40
2022-09-16T23:46:33.376Z,65.29
2022-09-16T23:49:00.032Z,65.41
2022-09-16T23:51:28.527Z,65.71
2022-09-16T23:53:56.375Z,65.65
2022-09-16T23:56:23.048Z,65.32
2022-09-16T23:58:50.911Z,65.75
